Magnolia Springs, Texas
Current Conditions -  °F | °C
As of 3:55 AM on Friday 19 Dec 2014 (Local Time) from KJAS Reporting Station
Moderate Rain Moderate Rain  
Wind Chill: 51°   Ceiling: Unl
Heat Index: 51°   Visibility: 5mi
Dew Point: 51°   Wind: 6mph
Humidity: 97%   Direction: 80°E
Pressure: 30.09"   Gusts: NA
Location:  30.7133°N, 93.9985°W
Report Text: KJAS 190955Z AUTO 08005KT 5SM RA SCT008 SCT026 SCT035 11/10 A3009 RMK AO2 P0025 T01080103
Loading
Personal Weather Stations






























Interactive Weather Map New forecast layout! Learn more

10-Day Weather Forecast

Advertisements
Track Severe Weather on mobile